sensor_id;sensor_type;location;lat;lon;timestamp;P1;durP1;ratioP1;P2;durP2;ratioP2
85257;SDS011;75669;48.038;10.158;2024-02-04T00:00:16;7.63;;;3.97;;
85257;SDS011;75669;48.038;10.158;2024-02-04T00:02:43;8.35;;;4.47;;
85257;SDS011;75669;48.038;10.158;2024-02-04T00:05:08;7.88;;;3.60;;
85257;SDS011;75669;48.038;10.158;2024-02-04T00:07:33;9.15;;;4.43;;
85257;SDS011;75669;48.038;10.158;2024-02-04T00:09:59;9.25;;;4.22;;
85257;SDS011;75669;48.038;10.158;2024-02-04T00:12:24;9.82;;;4.55;;
85257;SDS011;75669;48.038;10.158;2024-02-04T00:14:50;7.13;;;3.63;;
85257;SDS011;75669;48.038;10.158;2024-02-04T00:17:15;8.15;;;4.28;;
85257;SDS011;75669;48.038;10.158;2024-02-04T00:19:41;7.40;;;3.63;;
85257;SDS011;75669;48.038;10.158;2024-02-04T00:22:07;7.32;;;3.95;;
85257;SDS011;75669;48.038;10.158;2024-02-04T00:24:32;6.53;;;3.50;;
85257;SDS011;75669;48.038;10.158;2024-02-04T00:26:58;8.40;;;4.85;;
85257;SDS011;75669;48.038;10.158;2024-02-04T00:29:23;9.10;;;4.22;;
85257;SDS011;75669;48.038;10.158;2024-02-04T00:31:48;7.90;;;4.22;;
85257;SDS011;75669;48.038;10.158;2024-02-04T00:34:14;7.53;;;4.88;;
85257;SDS011;75669;48.038;10.158;2024-02-04T00:36:39;8.75;;;4.68;;
85257;SDS011;75669;48.038;10.158;2024-02-04T00:39:05;7.03;;;3.78;;
85257;SDS011;75669;48.038;10.158;2024-02-04T00:41:32;8.55;;;3.58;;
85257;SDS011;75669;48.038;10.158;2024-02-04T00:43:58;8.52;;;4.70;;
85257;SDS011;75669;48.038;10.158;2024-02-04T00:46:23;8.77;;;4.72;;
85257;SDS011;75669;48.038;10.158;2024-02-04T00:48:49;10.20;;;4.72;;
85257;SDS011;75669;48.038;10.158;2024-02-04T00:51:14;8.85;;;5.47;;
85257;SDS011;75669;48.038;10.158;2024-02-04T00:53:42;9.57;;;4.85;;
85257;SDS011;75669;48.038;10.158;2024-02-04T00:56:08;8.95;;;5.05;;
85257;SDS011;75669;48.038;10.158;2024-02-04T00:58:34;8.75;;;4.13;;
85257;SDS011;75669;48.038;10.158;2024-02-04T01:03:34;10.00;;;4.47;;
85257;SDS011;75669;48.038;10.158;2024-02-04T01:06:00;10.48;;;4.88;;
85257;SDS011;75669;48.038;10.158;2024-02-04T01:08:25;12.23;;;5.45;;
85257;SDS011;75669;48.038;10.158;2024-02-04T01:10:50;8.40;;;4.15;;
85257;SDS011;75669;48.038;10.158;2024-02-04T01:13:16;8.68;;;4.57;;
85257;SDS011;75669;48.038;10.158;2024-02-04T01:15:42;8.05;;;3.70;;
85257;SDS011;75669;48.038;10.158;2024-02-04T01:18:08;7.63;;;4.00;;
85257;SDS011;75669;48.038;10.158;2024-02-04T01:20:33;8.52;;;3.15;;
85257;SDS011;75669;48.038;10.158;2024-02-04T01:22:58;8.02;;;3.35;;
85257;SDS011;75669;48.038;10.158;2024-02-04T01:25:24;7.05;;;3.65;;
85257;SDS011;75669;48.038;10.158;2024-02-04T01:27:49;10.15;;;4.43;;
85257;SDS011;75669;48.038;10.158;2024-02-04T01:30:14;7.38;;;4.15;;
85257;SDS011;75669;48.038;10.158;2024-02-04T01:32:40;9.05;;;4.18;;
85257;SDS011;75669;48.038;10.158;2024-02-04T01:35:05;8.70;;;4.20;;
85257;SDS011;75669;48.038;10.158;2024-02-04T01:37:31;6.68;;;2.83;;
85257;SDS011;75669;48.038;10.158;2024-02-04T01:39:57;8.33;;;3.77;;
85257;SDS011;75669;48.038;10.158;2024-02-04T01:42:22;6.93;;;3.75;;
85257;SDS011;75669;48.038;10.158;2024-02-04T01:44:47;8.32;;;3.67;;
85257;SDS011;75669;48.038;10.158;2024-02-04T01:47:13;6.93;;;3.17;;
85257;SDS011;75669;48.038;10.158;2024-02-04T01:49:39;8.48;;;3.60;;
85257;SDS011;75669;48.038;10.158;2024-02-04T01:52:05;7.47;;;3.38;;
85257;SDS011;75669;48.038;10.158;2024-02-04T01:54:32;6.30;;;3.13;;
85257;SDS011;75669;48.038;10.158;2024-02-04T01:56:58;9.20;;;4.18;;
85257;SDS011;75669;48.038;10.158;2024-02-04T01:59:26;7.15;;;3.50;;
85257;SDS011;75669;48.038;10.158;2024-02-04T02:01:55;6.45;;;3.25;;
85257;SDS011;75669;48.038;10.158;2024-02-04T02:04:21;5.78;;;2.50;;
85257;SDS011;75669;48.038;10.158;2024-02-04T02:06:46;7.22;;;3.33;;
85257;SDS011;75669;48.038;10.158;2024-02-04T02:09:12;5.32;;;2.30;;
85257;SDS011;75669;48.038;10.158;2024-02-04T02:11:40;7.38;;;4.35;;
85257;SDS011;75669;48.038;10.158;2024-02-04T02:14:13;8.23;;;2.92;;
85257;SDS011;75669;48.038;10.158;2024-02-04T02:16:41;5.80;;;2.63;;
85257;SDS011;75669;48.038;10.158;2024-02-04T02:24:57;6.63;;;3.33;;
85257;SDS011;75669;48.038;10.158;2024-02-04T02:27:24;5.13;;;2.13;;
85257;SDS011;75669;48.038;10.158;2024-02-04T02:29:50;6.40;;;2.85;;
85257;SDS011;75669;48.038;10.158;2024-02-04T02:32:16;7.43;;;2.97;;
85257;SDS011;75669;48.038;10.158;2024-02-04T02:34:41;6.45;;;2.97;;
85257;SDS011;75669;48.038;10.158;2024-02-04T02:37:09;6.97;;;2.60;;
85257;SDS011;75669;48.038;10.158;2024-02-04T02:42:53;7.65;;;2.67;;
85257;SDS011;75669;48.038;10.158;2024-02-04T02:45:22;7.53;;;3.70;;
85257;SDS011;75669;48.038;10.158;2024-02-04T02:47:50;5.30;;;2.38;;
85257;SDS011;75669;48.038;10.158;2024-02-04T02:50:16;6.45;;;2.80;;
85257;SDS011;75669;48.038;10.158;2024-02-04T02:52:41;7.07;;;2.40;;
85257;SDS011;75669;48.038;10.158;2024-02-04T02:55:07;5.18;;;2.63;;
85257;SDS011;75669;48.038;10.158;2024-02-04T02:57:32;4.82;;;2.85;;
85257;SDS011;75669;48.038;10.158;2024-02-04T02:59:58;5.07;;;2.10;;
85257;SDS011;75669;48.038;10.158;2024-02-04T03:02:23;4.78;;;1.95;;
85257;SDS011;75669;48.038;10.158;2024-02-04T03:04:49;3.95;;;1.83;;
85257;SDS011;75669;48.038;10.158;2024-02-04T03:07:14;4.20;;;1.90;;
85257;SDS011;75669;48.038;10.158;2024-02-04T03:09:39;3.63;;;1.60;;
85257;SDS011;75669;48.038;10.158;2024-02-04T03:12:05;7.05;;;2.47;;
85257;SDS011;75669;48.038;10.158;2024-02-04T03:14:30;5.55;;;2.00;;
85257;SDS011;75669;48.038;10.158;2024-02-04T03:16:56;5.97;;;2.50;;
85257;SDS011;75669;48.038;10.158;2024-02-04T03:19:21;4.70;;;2.03;;
85257;SDS011;75669;48.038;10.158;2024-02-04T03:21:47;5.03;;;2.13;;
85257;SDS011;75669;48.038;10.158;2024-02-04T03:24:12;7.13;;;2.33;;
85257;SDS011;75669;48.038;10.158;2024-02-04T03:26:38;5.65;;;2.88;;
85257;SDS011;75669;48.038;10.158;2024-02-04T03:29:03;4.32;;;1.95;;
85257;SDS011;75669;48.038;10.158;2024-02-04T03:31:30;5.80;;;2.25;;
85257;SDS011;75669;48.038;10.158;2024-02-04T03:33:56;6.05;;;2.17;;
85257;SDS011;75669;48.038;10.158;2024-02-04T03:36:22;6.82;;;2.85;;
85257;SDS011;75669;48.038;10.158;2024-02-04T03:38:49;4.45;;;2.15;;
85257;SDS011;75669;48.038;10.158;2024-02-04T03:41:15;5.10;;;2.15;;
85257;SDS011;75669;48.038;10.158;2024-02-04T03:43:41;5.45;;;2.15;;
85257;SDS011;75669;48.038;10.158;2024-02-04T03:46:06;4.18;;;1.88;;
85257;SDS011;75669;48.038;10.158;2024-02-04T03:48:31;5.35;;;2.22;;
85257;SDS011;75669;48.038;10.158;2024-02-04T03:50:58;5.05;;;2.10;;
85257;SDS011;75669;48.038;10.158;2024-02-04T03:53:24;4.75;;;2.53;;
85257;SDS011;75669;48.038;10.158;2024-02-04T03:55:50;5.18;;;2.53;;
85257;SDS011;75669;48.038;10.158;2024-02-04T03:58:16;5.05;;;2.53;;
85257;SDS011;75669;48.038;10.158;2024-02-04T04:00:41;7.25;;;2.80;;
85257;SDS011;75669;48.038;10.158;2024-02-04T04:03:06;5.57;;;3.40;;
85257;SDS011;75669;48.038;10.158;2024-02-04T04:05:32;5.60;;;2.40;;
85257;SDS011;75669;48.038;10.158;2024-02-04T04:07:57;6.65;;;3.35;;
85257;SDS011;75669;48.038;10.158;2024-02-04T04:10:23;9.68;;;3.70;;
85257;SDS011;75669;48.038;10.158;2024-02-04T04:12:48;8.07;;;3.30;;
85257;SDS011;75669;48.038;10.158;2024-02-04T04:15:13;6.60;;;3.30;;
85257;SDS011;75669;48.038;10.158;2024-02-04T04:17:39;7.95;;;4.10;;
85257;SDS011;75669;48.038;10.158;2024-02-04T04:20:06;5.63;;;2.70;;
85257;SDS011;75669;48.038;10.158;2024-02-04T04:22:32;6.97;;;2.90;;
85257;SDS011;75669;48.038;10.158;2024-02-04T04:24:57;7.97;;;3.03;;
85257;SDS011;75669;48.038;10.158;2024-02-04T04:27:22;6.90;;;3.03;;
85257;SDS011;75669;48.038;10.158;2024-02-04T04:29:48;6.05;;;2.65;;
85257;SDS011;75669;48.038;10.158;2024-02-04T04:32:13;4.78;;;2.33;;
85257;SDS011;75669;48.038;10.158;2024-02-04T04:34:39;6.28;;;2.50;;
85257;SDS011;75669;48.038;10.158;2024-02-04T04:37:04;8.35;;;3.30;;
85257;SDS011;75669;48.038;10.158;2024-02-04T04:39:29;5.43;;;3.13;;
85257;SDS011;75669;48.038;10.158;2024-02-04T04:41:54;7.13;;;3.55;;
85257;SDS011;75669;48.038;10.158;2024-02-04T04:44:20;9.00;;;4.40;;
85257;SDS011;75669;48.038;10.158;2024-02-04T04:46:45;7.78;;;3.28;;
85257;SDS011;75669;48.038;10.158;2024-02-04T04:49:11;6.63;;;3.25;;
85257;SDS011;75669;48.038;10.158;2024-02-04T04:51:36;9.60;;;4.13;;
85257;SDS011;75669;48.038;10.158;2024-02-04T04:54:01;9.02;;;4.40;;
85257;SDS011;75669;48.038;10.158;2024-02-04T04:56:27;10.85;;;4.30;;
85257;SDS011;75669;48.038;10.158;2024-02-04T04:58:52;9.15;;;4.05;;
85257;SDS011;75669;48.038;10.158;2024-02-04T05:01:17;9.35;;;4.32;;
85257;SDS011;75669;48.038;10.158;2024-02-04T05:03:43;11.20;;;4.85;;
85257;SDS011;75669;48.038;10.158;2024-02-04T05:06:09;12.23;;;5.20;;
85257;SDS011;75669;48.038;10.158;2024-02-04T05:08:34;10.43;;;4.43;;
85257;SDS011;75669;48.038;10.158;2024-02-04T05:11:00;11.07;;;4.22;;
85257;SDS011;75669;48.038;10.158;2024-02-04T05:13:25;8.75;;;3.60;;
85257;SDS011;75669;48.038;10.158;2024-02-04T05:15:50;7.78;;;3.63;;
85257;SDS011;75669;48.038;10.158;2024-02-04T05:18:16;9.82;;;4.30;;
85257;SDS011;75669;48.038;10.158;2024-02-04T05:20:41;10.57;;;3.40;;
85257;SDS011;75669;48.038;10.158;2024-02-04T05:23:08;13.05;;;5.20;;
85257;SDS011;75669;48.038;10.158;2024-02-04T05:25:34;8.70;;;4.07;;
85257;SDS011;75669;48.038;10.158;2024-02-04T05:27:59;11.77;;;5.03;;
85257;SDS011;75669;48.038;10.158;2024-02-04T05:30:24;9.82;;;5.40;;
85257;SDS011;75669;48.038;10.158;2024-02-04T05:32:50;9.02;;;4.15;;
85257;SDS011;75669;48.038;10.158;2024-02-04T05:35:15;7.90;;;3.70;;
85257;SDS011;75669;48.038;10.158;2024-02-04T05:37:40;9.73;;;4.13;;
85257;SDS011;75669;48.038;10.158;2024-02-04T05:40:06;7.63;;;3.27;;
85257;SDS011;75669;48.038;10.158;2024-02-04T05:42:31;4.85;;;2.20;;
85257;SDS011;75669;48.038;10.158;2024-02-04T05:44:57;5.90;;;2.67;;
85257;SDS011;75669;48.038;10.158;2024-02-04T05:47:23;4.93;;;2.22;;
85257;SDS011;75669;48.038;10.158;2024-02-04T05:49:48;6.38;;;2.50;;
85257;SDS011;75669;48.038;10.158;2024-02-04T05:52:14;4.47;;;1.80;;
85257;SDS011;75669;48.038;10.158;2024-02-04T05:54:40;5.90;;;2.22;;
85257;SDS011;75669;48.038;10.158;2024-02-04T05:57:05;4.38;;;1.83;;
85257;SDS011;75669;48.038;10.158;2024-02-04T05:59:31;5.22;;;1.48;;
85257;SDS011;75669;48.038;10.158;2024-02-04T06:01:57;3.63;;;1.50;;
85257;SDS011;75669;48.038;10.158;2024-02-04T06:04:22;9.80;;;2.20;;
85257;SDS011;75669;48.038;10.158;2024-02-04T06:06:47;5.70;;;2.23;;
85257;SDS011;75669;48.038;10.158;2024-02-04T06:09:13;4.50;;;1.48;;
85257;SDS011;75669;48.038;10.158;2024-02-04T06:11:38;3.67;;;1.90;;
85257;SDS011;75669;48.038;10.158;2024-02-04T06:14:04;5.75;;;1.92;;
85257;SDS011;75669;48.038;10.158;2024-02-04T06:16:29;3.28;;;1.42;;
85257;SDS011;75669;48.038;10.158;2024-02-04T06:18:55;3.28;;;1.33;;
85257;SDS011;75669;48.038;10.158;2024-02-04T06:21:22;7.03;;;2.17;;
85257;SDS011;75669;48.038;10.158;2024-02-04T06:23:47;5.68;;;1.67;;
85257;SDS011;75669;48.038;10.158;2024-02-04T06:26:13;5.63;;;2.42;;
85257;SDS011;75669;48.038;10.158;2024-02-04T06:28:38;4.68;;;2.72;;
85257;SDS011;75669;48.038;10.158;2024-02-04T06:31:04;5.00;;;2.03;;
85257;SDS011;75669;48.038;10.158;2024-02-04T06:33:29;3.50;;;1.45;;
85257;SDS011;75669;48.038;10.158;2024-02-04T06:35:54;3.88;;;1.58;;
85257;SDS011;75669;48.038;10.158;2024-02-04T06:38:21;4.50;;;1.25;;
85257;SDS011;75669;48.038;10.158;2024-02-04T06:40:46;5.13;;;2.50;;
85257;SDS011;75669;48.038;10.158;2024-02-04T06:43:11;3.95;;;1.85;;
85257;SDS011;75669;48.038;10.158;2024-02-04T06:45:37;3.95;;;1.48;;
85257;SDS011;75669;48.038;10.158;2024-02-04T06:48:02;4.50;;;1.25;;
85257;SDS011;75669;48.038;10.158;2024-02-04T06:50:28;4.38;;;2.03;;
85257;SDS011;75669;48.038;10.158;2024-02-04T06:52:53;7.72;;;2.92;;
85257;SDS011;75669;48.038;10.158;2024-02-04T06:55:18;6.45;;;2.63;;
85257;SDS011;75669;48.038;10.158;2024-02-04T06:57:44;7.47;;;2.72;;
85257;SDS011;75669;48.038;10.158;2024-02-04T07:00:10;7.25;;;3.30;;
85257;SDS011;75669;48.038;10.158;2024-02-04T07:02:36;7.95;;;3.95;;
85257;SDS011;75669;48.038;10.158;2024-02-04T07:05:02;9.07;;;4.55;;
85257;SDS011;75669;48.038;10.158;2024-02-04T07:07:28;7.78;;;3.85;;
85257;SDS011;75669;48.038;10.158;2024-02-04T07:09:53;7.30;;;3.63;;
85257;SDS011;75669;48.038;10.158;2024-02-04T07:12:18;7.03;;;3.13;;
85257;SDS011;75669;48.038;10.158;2024-02-04T07:14:44;6.72;;;3.83;;
85257;SDS011;75669;48.038;10.158;2024-02-04T07:17:09;10.40;;;4.53;;
85257;SDS011;75669;48.038;10.158;2024-02-04T07:19:36;5.63;;;2.20;;
85257;SDS011;75669;48.038;10.158;2024-02-04T07:22:02;8.10;;;3.70;;
85257;SDS011;75669;48.038;10.158;2024-02-04T07:24:28;8.65;;;4.03;;
85257;SDS011;75669;48.038;10.158;2024-02-04T07:26:53;5.40;;;2.47;;
85257;SDS011;75669;48.038;10.158;2024-02-04T07:29:18;7.70;;;3.85;;
85257;SDS011;75669;48.038;10.158;2024-02-04T07:31:44;8.43;;;4.85;;
85257;SDS011;75669;48.038;10.158;2024-02-04T07:34:09;5.57;;;2.78;;
85257;SDS011;75669;48.038;10.158;2024-02-04T07:36:34;7.53;;;3.83;;
85257;SDS011;75669;48.038;10.158;2024-02-04T07:39:00;6.28;;;2.47;;
85257;SDS011;75669;48.038;10.158;2024-02-04T07:41:29;6.00;;;2.38;;
85257;SDS011;75669;48.038;10.158;2024-02-04T07:43:54;6.32;;;2.58;;
85257;SDS011;75669;48.038;10.158;2024-02-04T07:46:20;6.50;;;2.95;;
85257;SDS011;75669;48.038;10.158;2024-02-04T07:48:46;7.00;;;4.25;;
85257;SDS011;75669;48.038;10.158;2024-02-04T07:51:12;5.13;;;2.05;;
85257;SDS011;75669;48.038;10.158;2024-02-04T07:53:37;5.63;;;2.22;;
85257;SDS011;75669;48.038;10.158;2024-02-04T07:56:03;6.65;;;2.35;;
85257;SDS011;75669;48.038;10.158;2024-02-04T07:58:31;6.50;;;3.80;;
85257;SDS011;75669;48.038;10.158;2024-02-04T08:00:57;7.38;;;3.38;;
85257;SDS011;75669;48.038;10.158;2024-02-04T08:03:22;10.13;;;3.13;;
85257;SDS011;75669;48.038;10.158;2024-02-04T08:05:47;7.20;;;2.88;;
85257;SDS011;75669;48.038;10.158;2024-02-04T08:08:13;7.72;;;3.20;;
85257;SDS011;75669;48.038;10.158;2024-02-04T08:10:38;6.88;;;2.67;;
85257;SDS011;75669;48.038;10.158;2024-02-04T08:13:03;6.82;;;2.45;;
85257;SDS011;75669;48.038;10.158;2024-02-04T08:15:29;7.32;;;2.75;;
85257;SDS011;75669;48.038;10.158;2024-02-04T08:17:54;4.90;;;2.47;;
85257;SDS011;75669;48.038;10.158;2024-02-04T08:20:19;8.45;;;3.08;;
85257;SDS011;75669;48.038;10.158;2024-02-04T08:22:46;5.18;;;2.05;;
85257;SDS011;75669;48.038;10.158;2024-02-04T08:25:11;6.18;;;2.70;;
85257;SDS011;75669;48.038;10.158;2024-02-04T08:27:37;10.20;;;3.72;;
85257;SDS011;75669;48.038;10.158;2024-02-04T08:30:03;6.57;;;3.10;;
85257;SDS011;75669;48.038;10.158;2024-02-04T08:32:30;6.88;;;3.28;;
85257;SDS011;75669;48.038;10.158;2024-02-04T08:34:55;5.50;;;2.90;;
85257;SDS011;75669;48.038;10.158;2024-02-04T08:37:21;7.93;;;3.67;;
85257;SDS011;75669;48.038;10.158;2024-02-04T08:39:46;7.60;;;3.30;;
85257;SDS011;75669;48.038;10.158;2024-02-04T08:42:12;8.85;;;4.88;;
85257;SDS011;75669;48.038;10.158;2024-02-04T08:44:37;8.27;;;4.35;;
85257;SDS011;75669;48.038;10.158;2024-02-04T08:47:02;9.75;;;5.30;;
85257;SDS011;75669;48.038;10.158;2024-02-04T08:49:29;8.55;;;4.30;;
85257;SDS011;75669;48.038;10.158;2024-02-04T08:51:54;9.15;;;3.78;;
85257;SDS011;75669;48.038;10.158;2024-02-04T08:54:20;7.72;;;4.03;;
85257;SDS011;75669;48.038;10.158;2024-02-04T08:56:45;6.25;;;3.17;;
85257;SDS011;75669;48.038;10.158;2024-02-04T08:59:10;6.68;;;3.80;;
85257;SDS011;75669;48.038;10.158;2024-02-04T09:01:36;6.90;;;4.15;;
85257;SDS011;75669;48.038;10.158;2024-02-04T09:04:01;7.15;;;3.42;;
85257;SDS011;75669;48.038;10.158;2024-02-04T09:06:27;8.15;;;3.90;;
85257;SDS011;75669;48.038;10.158;2024-02-04T09:08:52;5.90;;;2.67;;
85257;SDS011;75669;48.038;10.158;2024-02-04T09:11:17;6.22;;;3.25;;
85257;SDS011;75669;48.038;10.158;2024-02-04T09:13:45;6.88;;;4.03;;
85257;SDS011;75669;48.038;10.158;2024-02-04T09:16:10;5.60;;;2.40;;
85257;SDS011;75669;48.038;10.158;2024-02-04T09:18:36;4.88;;;2.22;;
85257;SDS011;75669;48.038;10.158;2024-02-04T09:21:02;5.88;;;3.08;;
85257;SDS011;75669;48.038;10.158;2024-02-04T09:23:27;5.22;;;2.50;;
85257;SDS011;75669;48.038;10.158;2024-02-04T09:25:53;5.93;;;2.78;;
85257;SDS011;75669;48.038;10.158;2024-02-04T09:28:18;4.97;;;2.47;;
85257;SDS011;75669;48.038;10.158;2024-02-04T09:30:44;7.88;;;3.35;;
85257;SDS011;75669;48.038;10.158;2024-02-04T09:33:09;8.02;;;3.78;;
85257;SDS011;75669;48.038;10.158;2024-02-04T09:35:34;5.78;;;3.70;;
85257;SDS011;75669;48.038;10.158;2024-02-04T09:38:00;7.18;;;2.95;;
85257;SDS011;75669;48.038;10.158;2024-02-04T09:40:25;6.00;;;2.72;;
85257;SDS011;75669;48.038;10.158;2024-02-04T09:42:51;5.18;;;2.58;;
85257;SDS011;75669;48.038;10.158;2024-02-04T09:45:17;4.47;;;2.45;;
85257;SDS011;75669;48.038;10.158;2024-02-04T09:47:42;6.50;;;2.88;;
85257;SDS011;75669;48.038;10.158;2024-02-04T09:50:10;5.13;;;2.50;;
85257;SDS011;75669;48.038;10.158;2024-02-04T09:52:39;5.60;;;2.47;;
85257;SDS011;75669;48.038;10.158;2024-02-04T09:55:08;9.13;;;3.03;;
85257;SDS011;75669;48.038;10.158;2024-02-04T09:57:35;5.43;;;2.63;;
85257;SDS011;75669;48.038;10.158;2024-02-04T10:00:03;7.07;;;3.03;;
85257;SDS011;75669;48.038;10.158;2024-02-04T10:02:30;6.00;;;3.25;;
85257;SDS011;75669;48.038;10.158;2024-02-04T10:04:57;7.65;;;2.75;;
85257;SDS011;75669;48.038;10.158;2024-02-04T10:07:22;6.53;;;2.75;;
85257;SDS011;75669;48.038;10.158;2024-02-04T10:09:49;5.63;;;2.70;;
85257;SDS011;75669;48.038;10.158;2024-02-04T10:12:15;5.78;;;2.92;;
85257;SDS011;75669;48.038;10.158;2024-02-04T10:14:41;7.15;;;3.67;;
85257;SDS011;75669;48.038;10.158;2024-02-04T10:17:06;7.70;;;4.33;;
85257;SDS011;75669;48.038;10.158;2024-02-04T10:19:32;6.60;;;3.55;;
85257;SDS011;75669;48.038;10.158;2024-02-04T10:22:01;6.60;;;2.88;;
85257;SDS011;75669;48.038;10.158;2024-02-04T10:24:28;7.32;;;3.92;;
85257;SDS011;75669;48.038;10.158;2024-02-04T10:26:56;7.47;;;3.78;;
85257;SDS011;75669;48.038;10.158;2024-02-04T10:29:22;7.97;;;3.60;;
85257;SDS011;75669;48.038;10.158;2024-02-04T10:31:52;5.90;;;2.78;;
85257;SDS011;75669;48.038;10.158;2024-02-04T10:34:18;6.95;;;2.85;;
85257;SDS011;75669;48.038;10.158;2024-02-04T10:36:44;6.25;;;3.13;;
85257;SDS011;75669;48.038;10.158;2024-02-04T10:39:10;3.57;;;1.83;;
85257;SDS011;75669;48.038;10.158;2024-02-04T10:41:35;5.97;;;1.83;;
85257;SDS011;75669;48.038;10.158;2024-02-04T10:44:13;5.88;;;2.30;;
85257;SDS011;75669;48.038;10.158;2024-02-04T10:46:42;5.20;;;1.85;;
85257;SDS011;75669;48.038;10.158;2024-02-04T10:49:13;4.57;;;2.13;;
85257;SDS011;75669;48.038;10.158;2024-02-04T10:51:39;5.18;;;2.55;;
85257;SDS011;75669;48.038;10.158;2024-02-04T10:54:06;4.60;;;2.03;;
85257;SDS011;75669;48.038;10.158;2024-02-04T10:59:10;4.68;;;2.53;;
85257;SDS011;75669;48.038;10.158;2024-02-04T11:01:42;5.55;;;2.38;;
85257;SDS011;75669;48.038;10.158;2024-02-04T11:04:09;4.55;;;2.00;;
85257;SDS011;75669;48.038;10.158;2024-02-04T11:06:36;6.45;;;3.15;;
85257;SDS011;75669;48.038;10.158;2024-02-04T11:09:03;6.78;;;3.10;;
85257;SDS011;75669;48.038;10.158;2024-02-04T11:11:31;4.55;;;1.98;;
85257;SDS011;75669;48.038;10.158;2024-02-04T11:13:58;5.57;;;2.47;;
85257;SDS011;75669;48.038;10.158;2024-02-04T11:16:33;6.00;;;2.53;;
85257;SDS011;75669;48.038;10.158;2024-02-04T11:25:19;5.25;;;2.50;;
85257;SDS011;75669;48.038;10.158;2024-02-04T11:28:02;5.90;;;2.38;;
85257;SDS011;75669;48.038;10.158;2024-02-04T11:30:32;4.55;;;1.80;;
85257;SDS011;75669;48.038;10.158;2024-02-04T11:33:00;4.05;;;1.75;;
85257;SDS011;75669;48.038;10.158;2024-02-04T11:35:25;4.90;;;1.67;;
85257;SDS011;75669;48.038;10.158;2024-02-04T11:37:53;5.50;;;1.88;;
85257;SDS011;75669;48.038;10.158;2024-02-04T11:40:20;3.67;;;1.70;;
85257;SDS011;75669;48.038;10.158;2024-02-04T11:42:46;5.80;;;1.42;;
85257;SDS011;75669;48.038;10.158;2024-02-04T11:45:11;5.85;;;1.42;;
85257;SDS011;75669;48.038;10.158;2024-02-04T11:47:38;4.30;;;1.63;;
85257;SDS011;75669;48.038;10.158;2024-02-04T11:50:05;3.75;;;1.63;;
85257;SDS011;75669;48.038;10.158;2024-02-04T11:52:32;5.80;;;2.38;;
85257;SDS011;75669;48.038;10.158;2024-02-04T11:54:57;5.60;;;1.65;;
85257;SDS011;75669;48.038;10.158;2024-02-04T11:57:23;6.13;;;1.38;;
85257;SDS011;75669;48.038;10.158;2024-02-04T11:59:50;4.00;;;1.63;;
85257;SDS011;75669;48.038;10.158;2024-02-04T12:02:17;3.08;;;1.30;;
85257;SDS011;75669;48.038;10.158;2024-02-04T12:04:44;3.15;;;1.02;;
85257;SDS011;75669;48.038;10.158;2024-02-04T12:07:09;4.95;;;1.45;;
85257;SDS011;75669;48.038;10.158;2024-02-04T12:09:35;2.67;;;1.30;;
85257;SDS011;75669;48.038;10.158;2024-02-04T12:12:01;3.78;;;1.30;;
85257;SDS011;75669;48.038;10.158;2024-02-04T12:14:28;3.15;;;1.05;;
85257;SDS011;75669;48.038;10.158;2024-02-04T12:16:54;4.15;;;1.20;;
85257;SDS011;75669;48.038;10.158;2024-02-04T12:19:21;5.30;;;1.20;;
85257;SDS011;75669;48.038;10.158;2024-02-04T12:21:46;3.13;;;1.42;;
85257;SDS011;75669;48.038;10.158;2024-02-04T12:24:12;4.50;;;1.27;;
85257;SDS011;75669;48.038;10.158;2024-02-04T12:26:37;2.38;;;0.82;;
85257;SDS011;75669;48.038;10.158;2024-02-04T12:29:04;2.80;;;0.73;;
85257;SDS011;75669;48.038;10.158;2024-02-04T12:31:30;4.60;;;1.73;;
85257;SDS011;75669;48.038;10.158;2024-02-04T12:33:57;1.40;;;0.60;;
85257;SDS011;75669;48.038;10.158;2024-02-04T12:36:25;2.40;;;0.73;;
85257;SDS011;75669;48.038;10.158;2024-02-04T12:38:54;2.92;;;0.82;;
85257;SDS011;75669;48.038;10.158;2024-02-04T12:41:21;2.22;;;0.80;;
85257;SDS011;75669;48.038;10.158;2024-02-04T12:43:54;1.83;;;0.80;;
85257;SDS011;75669;48.038;10.158;2024-02-04T12:46:24;2.88;;;0.90;;
85257;SDS011;75669;48.038;10.158;2024-02-04T12:48:52;1.80;;;0.63;;
85257;SDS011;75669;48.038;10.158;2024-02-04T12:54:09;2.03;;;0.80;;
85257;SDS011;75669;48.038;10.158;2024-02-04T12:56:54;2.05;;;0.60;;
85257;SDS011;75669;48.038;10.158;2024-02-04T12:59:29;2.42;;;0.85;;
85257;SDS011;75669;48.038;10.158;2024-02-04T13:01:57;2.45;;;1.13;;
85257;SDS011;75669;48.038;10.158;2024-02-04T13:04:23;3.45;;;1.00;;
85257;SDS011;75669;48.038;10.158;2024-02-04T13:06:50;2.88;;;0.98;;
85257;SDS011;75669;48.038;10.158;2024-02-04T13:09:16;4.38;;;0.93;;
85257;SDS011;75669;48.038;10.158;2024-02-04T13:11:42;3.47;;;0.98;;
85257;SDS011;75669;48.038;10.158;2024-02-04T13:14:08;2.00;;;0.63;;
85257;SDS011;75669;48.038;10.158;2024-02-04T13:16:34;4.97;;;0.77;;
85257;SDS011;75669;48.038;10.158;2024-02-04T13:19:02;7.00;;;0.70;;
85257;SDS011;75669;48.038;10.158;2024-02-04T13:21:28;2.03;;;0.73;;
85257;SDS011;75669;48.038;10.158;2024-02-04T13:23:53;3.28;;;0.85;;
85257;SDS011;75669;48.038;10.158;2024-02-04T13:26:19;3.53;;;1.15;;
85257;SDS011;75669;48.038;10.158;2024-02-04T13:28:44;3.00;;;0.88;;
85257;SDS011;75669;48.038;10.158;2024-02-04T13:31:10;1.70;;;0.80;;
85257;SDS011;75669;48.038;10.158;2024-02-04T13:33:35;2.10;;;0.75;;
85257;SDS011;75669;48.038;10.158;2024-02-04T13:36:02;1.60;;;0.63;;
85257;SDS011;75669;48.038;10.158;2024-02-04T13:38:28;3.03;;;1.30;;
85257;SDS011;75669;48.038;10.158;2024-02-04T13:40:53;3.13;;;0.73;;
85257;SDS011;75669;48.038;10.158;2024-02-04T13:43:19;3.00;;;1.00;;
85257;SDS011;75669;48.038;10.158;2024-02-04T13:45:44;2.35;;;1.73;;
85257;SDS011;75669;48.038;10.158;2024-02-04T13:48:09;1.70;;;0.70;;
85257;SDS011;75669;48.038;10.158;2024-02-04T13:50:35;1.40;;;0.60;;
85257;SDS011;75669;48.038;10.158;2024-02-04T13:53:02;2.13;;;0.50;;
85257;SDS011;75669;48.038;10.158;2024-02-04T13:55:28;4.30;;;0.85;;
85257;SDS011;75669;48.038;10.158;2024-02-04T13:57:53;3.15;;;1.30;;
85257;SDS011;75669;48.038;10.158;2024-02-04T14:00:19;4.72;;;1.35;;
85257;SDS011;75669;48.038;10.158;2024-02-04T14:02:44;3.20;;;1.13;;
85257;SDS011;75669;48.038;10.158;2024-02-04T14:05:10;2.08;;;0.50;;
85257;SDS011;75669;48.038;10.158;2024-02-04T14:07:35;3.50;;;0.87;;
85257;SDS011;75669;48.038;10.158;2024-02-04T14:10:02;2.75;;;0.90;;
85257;SDS011;75669;48.038;10.158;2024-02-04T14:12:27;2.28;;;0.93;;
85257;SDS011;75669;48.038;10.158;2024-02-04T14:14:54;6.53;;;1.10;;
85257;SDS011;75669;48.038;10.158;2024-02-04T14:17:19;4.45;;;1.70;;
85257;SDS011;75669;48.038;10.158;2024-02-04T14:19:45;3.85;;;0.77;;
85257;SDS011;75669;48.038;10.158;2024-02-04T14:22:15;3.00;;;1.00;;
85257;SDS011;75669;48.038;10.158;2024-02-04T14:24:45;2.70;;;0.77;;
85257;SDS011;75669;48.038;10.158;2024-02-04T14:27:11;1.75;;;0.63;;
85257;SDS011;75669;48.038;10.158;2024-02-04T14:29:36;2.80;;;1.42;;
85257;SDS011;75669;48.038;10.158;2024-02-04T14:32:02;2.33;;;0.93;;
85257;SDS011;75669;48.038;10.158;2024-02-04T14:34:28;3.53;;;0.70;;
85257;SDS011;75669;48.038;10.158;2024-02-04T14:36:53;3.42;;;1.10;;
85257;SDS011;75669;48.038;10.158;2024-02-04T14:39:19;3.47;;;0.73;;
85257;SDS011;75669;48.038;10.158;2024-02-04T14:41:44;2.42;;;1.02;;
85257;SDS011;75669;48.038;10.158;2024-02-04T14:44:09;4.45;;;1.10;;
85257;SDS011;75669;48.038;10.158;2024-02-04T14:46:36;5.22;;;0.75;;
85257;SDS011;75669;48.038;10.158;2024-02-04T14:49:02;3.15;;;0.80;;